createdAt,value
2022-10-20T00:01:12.297Z,100085.13
2022-10-20T00:03:39.817Z,100087.53
2022-10-20T00:06:22.173Z,100089.50
2022-10-20T00:08:50.332Z,100083.16
2022-10-20T00:11:20.911Z,100071.25
2022-10-20T00:13:49.746Z,100072.06
2022-10-20T00:16:16.560Z,100065.69
2022-10-20T00:18:43.672Z,100062.56
2022-10-20T00:21:19.340Z,100064.97
2022-10-20T00:23:46.147Z,100057.44
2022-10-20T00:26:16.070Z,100063.41
2022-10-20T00:28:43.544Z,100064.63
2022-10-20T00:31:11.354Z,100064.28
2022-10-20T00:33:38.054Z,100066.28
2022-10-20T00:36:07.240Z,100058.78
2022-10-20T00:38:35.375Z,100064.75
2022-10-20T00:41:03.438Z,100056.41
2022-10-20T00:43:48.416Z,100063.19
2022-10-20T00:46:19.758Z,100067.59
2022-10-20T00:48:50.329Z,100060.88
2022-10-20T00:51:20.167Z,100050.56
2022-10-20T00:53:50.168Z,100053.78
2022-10-20T00:56:17.002Z,100054.19
2022-10-20T00:58:43.887Z,100056.56
2022-10-20T01:01:12.862Z,100060.56
2022-10-20T01:03:48.179Z,100050.28
2022-10-20T01:08:52.671Z,100040.78
2022-10-20T01:11:25.257Z,100047.94
2022-10-20T01:14:04.075Z,100047.94
2022-10-20T01:16:45.716Z,100045.59
2022-10-20T01:19:53.455Z,100044.41
2022-10-20T01:22:32.157Z,100037.69
2022-10-20T01:25:18.383Z,100033.75
2022-10-20T01:27:48.510Z,100024.22
2022-10-20T01:30:22.407Z,100021.88
2022-10-20T01:33:17.391Z,100015.53
2022-10-20T01:36:18.824Z,100023.47
2022-10-20T01:39:22.745Z,100019.53
2022-10-20T01:42:06.138Z,100016.75
2022-10-20T01:44:36.352Z,100009.25
2022-10-20T01:47:03.866Z,100009.25
2022-10-20T01:49:30.755Z,100012.47
2022-10-20T01:51:57.403Z,99989.88
2022-10-20T01:54:26.711Z,99987.91
2022-10-20T01:56:59.342Z,100000.59
2022-10-20T01:59:58.324Z,99995.03
2022-10-20T02:02:37.050Z,99999.44
2022-10-20T02:05:22.534Z,99999.03
2022-10-20T02:07:50.242Z,99993.50
2022-10-20T02:10:27.756Z,99990.72
2022-10-20T02:13:00.740Z,99997.88
2022-10-20T02:15:30.966Z,99993.94
2022-10-20T02:18:04.205Z,99990.34
2022-10-20T02:20:33.687Z,100000.25
2022-10-20T02:23:02.966Z,100003.84
2022-10-20T02:25:30.899Z,99999.09
2022-10-20T02:30:31.367Z,99983.25
2022-10-20T02:32:58.044Z,99983.25
2022-10-20T02:35:30.748Z,99972.94
2022-10-20T02:37:58.121Z,99972.94
2022-10-20T02:40:24.964Z,99976.88
2022-10-20T02:42:51.639Z,99982.44
2022-10-20T02:45:18.527Z,99971.72
2022-10-20T02:47:45.293Z,99968.94
2022-10-20T02:50:12.521Z,99969.72
2022-10-20T02:52:40.500Z,99969.72
2022-10-20T02:55:07.734Z,99966.53
2022-10-20T02:57:34.787Z,99960.91
2022-10-20T03:00:01.725Z,99962.47
2022-10-20T03:02:28.367Z,99953.69
2022-10-20T03:04:55.088Z,99950.06
2022-10-20T03:07:21.778Z,99941.69
2022-10-20T03:09:52.182Z,99949.59
2022-10-20T03:12:18.820Z,99950.34
2022-10-20T03:14:45.525Z,99956.66
2022-10-20T03:17:12.129Z,99947.91
2022-10-20T03:19:39.496Z,99943.53
2022-10-20T03:22:06.151Z,99948.72
2022-10-20T03:24:32.786Z,99955.88
2022-10-20T03:26:59.515Z,99945.97
2022-10-20T03:29:26.152Z,99953.13
2022-10-20T03:31:52.783Z,99944.84
2022-10-20T03:34:19.375Z,99943.28
2022-10-20T03:36:45.987Z,99941.31
2022-10-20T03:39:12.751Z,99948.84
2022-10-20T03:41:39.420Z,99958.78
2022-10-20T03:44:06.074Z,99957.97
2022-10-20T03:46:32.976Z,99960.34
2022-10-20T03:48:59.605Z,99959.91
2022-10-20T03:51:26.336Z,99951.97
2022-10-20T03:53:52.957Z,99950.34
2022-10-20T03:56:21.103Z,99950.72
2022-10-20T03:58:48.253Z,99955.06
2022-10-20T04:01:17.682Z,99962.16
2022-10-20T04:03:45.049Z,99948.22
2022-10-20T04:06:15.287Z,99955.72
2022-10-20T04:08:42.219Z,99959.59
2022-10-20T04:11:09.299Z,99942.13
2022-10-20T04:13:35.913Z,99951.56
2022-10-20T04:16:02.554Z,99946.78
2022-10-20T04:18:29.235Z,99947.50
2022-10-20T04:20:55.869Z,99949.41
2022-10-20T04:23:22.557Z,99950.94
2022-10-20T04:25:49.237Z,99950.06
2022-10-20T04:28:17.360Z,99951.63
2022-10-20T04:30:44.545Z,99960.69
2022-10-20T04:33:12.194Z,99958.66
2022-10-20T04:35:39.127Z,99963.78
2022-10-20T04:38:06.404Z,99969.31
2022-10-20T04:40:33.534Z,99974.88
2022-10-20T04:43:01.027Z,99972.91
2022-10-20T04:45:28.434Z,99957.44
2022-10-20T04:47:55.170Z,99946.34
2022-10-20T04:50:22.027Z,99935.25
2022-10-20T04:52:48.639Z,99926.50
2022-10-20T04:55:15.337Z,99926.06
2022-10-20T04:57:41.957Z,99921.69
2022-10-20T05:00:09.140Z,99918.88
2022-10-20T05:02:35.835Z,99917.66
2022-10-20T05:05:02.461Z,99918.41
2022-10-20T05:07:32.209Z,99919.91
2022-10-20T05:09:58.853Z,99922.63
2022-10-20T05:12:25.588Z,99920.16
2022-10-20T05:14:52.210Z,99927.63
2022-10-20T05:17:18.856Z,99925.16
2022-10-20T05:19:45.942Z,99928.97
2022-10-20T05:22:12.611Z,99925.72
2022-10-20T05:24:39.251Z,99923.34
2022-10-20T05:27:05.858Z,99920.19
2022-10-20T05:29:32.531Z,99922.59
2022-10-20T05:31:59.177Z,99919.44
2022-10-20T05:34:25.803Z,99920.25
2022-10-20T05:36:54.378Z,99916.66
2022-10-20T05:39:21.306Z,99917.84
2022-10-20T05:41:47.951Z,99920.19
2022-10-20T05:44:14.606Z,99905.09
2022-10-20T05:46:42.610Z,99924.06
2022-10-20T05:49:17.536Z,99915.72
2022-10-20T05:51:45.588Z,99912.44
2022-10-20T05:54:13.704Z,99922.22
2022-10-20T05:56:40.742Z,99914.88
2022-10-20T05:59:07.823Z,99916.41
2022-10-20T06:01:48.329Z,99920.97
2022-10-20T06:04:23.483Z,99909.22
2022-10-20T06:06:51.209Z,99927.78
2022-10-20T06:09:18.660Z,99931.34
2022-10-20T06:11:45.455Z,99940.44
2022-10-20T06:14:12.149Z,99938.47
2022-10-20T06:16:38.972Z,99932.59
2022-10-20T06:19:07.303Z,99937.38
2022-10-20T06:21:34.972Z,99930.28
2022-10-20T06:24:04.809Z,99928.00
2022-10-20T06:26:33.750Z,99919.00
2022-10-20T06:29:04.309Z,99910.03
2022-10-20T06:31:34.150Z,99913.66
2022-10-20T06:34:01.417Z,99900.22
2022-10-20T06:36:28.538Z,99904.59
2022-10-20T06:38:59.173Z,99894.25
2022-10-20T06:41:27.213Z,99883.19
2022-10-20T06:43:58.973Z,99882.75
2022-10-20T06:46:28.405Z,99880.38
2022-10-20T06:48:58.687Z,99889.41
2022-10-20T06:51:26.071Z,99885.41
2022-10-20T06:53:53.169Z,99887.72
2022-10-20T06:56:25.659Z,99880.53
2022-10-20T06:58:54.261Z,99890.38
2022-10-20T07:01:23.831Z,99897.84
2022-10-20T07:03:54.290Z,99897.75
2022-10-20T07:06:23.852Z,99904.44
2022-10-20T07:08:59.622Z,99919.09
2022-10-20T07:11:29.465Z,99911.97
2022-10-20T07:13:58.238Z,99915.91
2022-10-20T07:16:26.356Z,99908.75
2022-10-20T07:18:53.534Z,99904.41
2022-10-20T07:21:22.557Z,99912.31
2022-10-20T07:23:50.632Z,99918.75
2022-10-20T07:26:20.626Z,99904.94
2022-10-20T07:28:55.543Z,99901.88
2022-10-20T07:31:26.115Z,99896.03
2022-10-20T07:34:13.294Z,99898.56
2022-10-20T07:36:42.748Z,99881.28
2022-10-20T07:39:11.286Z,99892.47
2022-10-20T07:41:39.600Z,99883.50
2022-10-20T07:44:07.481Z,99889.47
2022-10-20T07:46:34.192Z,99895.88
2022-10-20T07:49:23.839Z,99907.00
2022-10-20T07:51:47.400Z,99899.56
2022-10-20T07:54:14.375Z,99901.16
2022-10-20T07:56:43.123Z,99915.09
2022-10-20T07:59:11.159Z,99913.16
2022-10-20T08:01:38.104Z,99916.34
2022-10-20T08:04:05.024Z,99918.78
2022-10-20T08:06:31.694Z,99927.94
2022-10-20T08:09:00.345Z,99923.69
2022-10-20T08:11:27.523Z,99919.00
2022-10-20T08:13:54.154Z,99911.16
2022-10-20T08:19:28.018Z,99914.09
2022-10-20T08:21:54.615Z,99914.56
2022-10-20T08:24:21.633Z,99910.28
2022-10-20T08:26:48.222Z,99913.19
2022-10-20T08:29:14.887Z,99904.53
2022-10-20T08:31:43.493Z,99910.09
2022-10-20T08:34:10.226Z,99906.97
2022-10-20T08:36:37.420Z,99893.09
2022-10-20T08:39:06.215Z,99901.03
2022-10-20T08:41:55.726Z,99904.63
2022-10-20T08:44:35.647Z,99916.53
2022-10-20T08:47:05.223Z,99909.38
2022-10-20T08:49:35.089Z,99913.34
2022-10-20T08:52:02.846Z,99907.06
2022-10-20T08:54:32.376Z,99904.72
2022-10-20T08:56:59.142Z,99899.97
2022-10-20T08:59:33.090Z,99896.03
2022-10-20T09:02:00.576Z,99896.09
2022-10-20T09:04:35.699Z,99904.81
2022-10-20T09:07:10.748Z,99907.25
2022-10-20T09:09:37.512Z,99897.00
2022-10-20T09:12:07.360Z,99893.09
2022-10-20T09:14:36.964Z,99894.75
2022-10-20T09:17:07.948Z,99892.44
2022-10-20T09:19:36.335Z,99886.13
2022-10-20T09:22:06.392Z,99891.72
2022-10-20T09:24:35.234Z,99881.47
2022-10-20T09:27:18.106Z,99881.53
2022-10-20T09:29:45.555Z,99880.78
2022-10-20T09:32:56.743Z,99880.44
2022-10-20T09:35:36.530Z,99885.66
2022-10-20T09:38:17.055Z,99869.38
2022-10-20T09:40:55.153Z,99863.53
2022-10-20T09:43:21.949Z,99865.94
2022-10-20T09:46:03.976Z,99867.19
2022-10-20T09:48:35.651Z,99865.19
2022-10-20T09:51:02.872Z,99858.84
2022-10-20T09:53:38.344Z,99864.84
2022-10-20T09:56:05.484Z,99853.38
2022-10-20T09:58:38.011Z,99862.16
2022-10-20T10:01:15.245Z,99857.09
2022-10-20T10:03:51.763Z,99859.50
2022-10-20T10:06:28.566Z,99863.09
2022-10-20T10:08:56.536Z,99869.50
2022-10-20T10:11:29.337Z,99861.22
2022-10-20T10:13:55.971Z,99868.03
2022-10-20T10:16:26.730Z,99863.31
2022-10-20T10:19:02.069Z,99857.00
2022-10-20T10:21:30.867Z,99863.81
2022-10-20T10:24:01.023Z,99859.88
2022-10-20T10:26:53.395Z,99855.97
2022-10-20T10:29:26.629Z,99850.84
2022-10-20T10:32:17.952Z,99858.03
2022-10-20T10:35:12.056Z,99855.31
2022-10-20T10:37:42.145Z,99854.94
2022-10-20T10:40:18.425Z,99854.94
2022-10-20T10:43:24.972Z,99853.72
2022-10-20T10:46:04.815Z,99839.81
2022-10-20T10:48:55.971Z,99844.19
2022-10-20T10:51:45.190Z,99839.06
2022-10-20T10:54:30.139Z,99841.44
2022-10-20T10:57:06.085Z,99838.28
2022-10-20T10:59:43.195Z,99834.28
2022-10-20T11:02:28.644Z,99835.50
2022-10-20T11:04:55.337Z,99828.34
2022-10-20T11:07:28.035Z,99816.84
2022-10-20T11:10:00.273Z,99823.59
2022-10-20T11:12:57.371Z,99820.06
2022-10-20T11:16:01.813Z,99812.16
2022-10-20T11:18:37.390Z,99816.97
2022-10-20T11:21:33.080Z,99815.38
2022-10-20T11:24:08.459Z,99803.44
2022-10-20T11:26:40.621Z,99809.00
2022-10-20T11:29:21.727Z,99813.81
2022-10-20T11:32:22.717Z,99808.25
2022-10-20T11:35:04.529Z,99795.53
2022-10-20T11:38:06.073Z,99799.53
2022-10-20T11:40:39.258Z,99809.13
2022-10-20T11:43:21.005Z,99801.16
2022-10-20T11:46:04.071Z,99795.16
2022-10-20T11:48:44.563Z,99801.16
2022-10-20T11:51:54.917Z,99797.56
2022-10-20T11:54:39.482Z,99784.81
2022-10-20T11:57:20.221Z,99793.19
2022-10-20T12:00:08.697Z,99784.44
2022-10-20T12:02:56.982Z,99786.81
2022-10-20T12:05:42.218Z,99777.66
2022-10-20T12:08:40.364Z,99770.09
2022-10-20T12:11:21.073Z,99770.06
2022-10-20T12:13:47.783Z,99776.47
2022-10-20T12:16:52.502Z,99758.94
2022-10-20T12:19:19.115Z,99752.97
2022-10-20T12:21:56.804Z,99753.34
2022-10-20T12:24:41.629Z,99758.94
2022-10-20T12:27:08.198Z,99741.41
2022-10-20T12:29:34.846Z,99739.81
2022-10-20T12:32:29.696Z,99736.63
2022-10-20T12:35:03.579Z,99729.03
2022-10-20T12:37:33.346Z,99727.03
2022-10-20T12:40:25.083Z,99726.19
2022-10-20T12:42:56.057Z,99734.19
2022-10-20T12:45:42.099Z,99716.66
2022-10-20T12:48:19.777Z,99724.59
2022-10-20T12:50:49.487Z,99723.00
2022-10-20T12:53:16.020Z,99720.59
2022-10-20T12:55:44.998Z,99723.81
2022-10-20T12:58:17.406Z,99720.25
2022-10-20T13:00:47.208Z,99717.44
2022-10-20T13:03:32.538Z,99713.88
2022-10-20T13:05:59.864Z,99710.31
2022-10-20T13:08:26.444Z,99705.53
2022-10-20T13:10:56.471Z,99703.91
2022-10-20T13:13:23.053Z,99697.56
2022-10-20T13:15:54.013Z,99696.38
2022-10-20T13:18:45.680Z,99692.75
2022-10-20T13:21:22.697Z,99692.75
2022-10-20T13:24:24.618Z,99694.75
2022-10-20T13:26:57.726Z,99694.38
2022-10-20T13:29:33.287Z,99687.19
2022-10-20T13:32:05.610Z,99688.78
2022-10-20T13:34:36.319Z,99684.78
2022-10-20T13:37:12.330Z,99687.19
2022-10-20T13:39:47.762Z,99682.41
2022-10-20T13:42:40.083Z,99690.38
2022-10-20T13:45:09.410Z,99684.78
2022-10-20T13:47:44.818Z,99685.53
2022-10-20T13:50:11.403Z,99676.00
2022-10-20T13:52:42.064Z,99672.44
2022-10-20T13:55:16.877Z,99657.69
2022-10-20T13:57:55.064Z,99657.31
2022-10-20T14:00:32.127Z,99662.53
2022-10-20T14:03:04.720Z,99654.97
2022-10-20T14:05:38.077Z,99655.81
2022-10-20T14:08:09.267Z,99652.22
2022-10-20T14:10:54.197Z,99650.59
2022-10-20T14:13:29.078Z,99645.03
2022-10-20T14:15:58.157Z,99642.66
2022-10-20T14:18:31.891Z,99640.69
2022-10-20T14:21:03.323Z,99636.66
2022-10-20T14:23:41.982Z,99638.66
2022-10-20T14:26:19.541Z,99626.72
2022-10-20T14:28:48.910Z,99629.06
2022-10-20T14:31:16.097Z,99625.09
2022-10-20T14:33:45.217Z,99617.13
2022-10-20T14:39:01.093Z,99613.19
2022-10-20T14:41:29.168Z,99613.19
2022-10-20T14:44:05.143Z,99613.97
2022-10-20T14:46:44.921Z,99609.19
2022-10-20T14:49:38.039Z,99607.53
2022-10-20T14:52:20.406Z,99607.13
2022-10-20T14:54:50.168Z,99613.47
2022-10-20T14:57:16.738Z,99609.47
2022-10-20T14:59:56.067Z,99597.94
2022-10-20T15:02:25.557Z,99601.53
2022-10-20T15:04:52.977Z,99591.59
2022-10-20T15:07:32.441Z,99589.19
2022-10-20T15:10:13.753Z,99588.47
2022-10-20T15:12:43.512Z,99588.13
2022-10-20T15:15:10.289Z,99584.94
2022-10-20T15:17:37.243Z,99575.03
2022-10-20T15:20:33.773Z,99571.06
2022-10-20T15:23:01.836Z,99570.25
2022-10-20T15:25:31.539Z,99569.44
2022-10-20T15:27:58.854Z,99570.63
2022-10-20T15:30:26.615Z,99568.63
2022-10-20T15:32:54.098Z,99566.22
2022-10-20T15:35:23.901Z,99567.81
2022-10-20T15:37:53.156Z,99552.28
2022-10-20T15:40:21.259Z,99556.66
2022-10-20T15:42:49.087Z,99552.72
2022-10-20T15:45:20.032Z,99552.72
2022-10-20T15:47:46.890Z,99549.56
2022-10-20T15:50:14.975Z,99546.38
2022-10-20T15:52:44.463Z,99545.19
2022-10-20T15:55:25.156Z,99544.44
2022-10-20T15:57:53.208Z,99541.66
2022-10-20T16:00:21.801Z,99536.91
2022-10-20T16:02:49.797Z,99538.50
2022-10-20T16:05:18.650Z,99535.28
2022-10-20T16:07:45.307Z,99534.13
2022-10-20T16:10:13.805Z,99534.91
2022-10-20T16:12:41.543Z,99533.72
2022-10-20T16:15:09.817Z,99531.34
2022-10-20T16:17:36.962Z,99528.97
2022-10-20T16:20:07.317Z,99529.75
2022-10-20T16:22:35.919Z,99529.75
2022-10-20T16:25:03.383Z,99532.16
2022-10-20T16:27:31.831Z,99525.78
2022-10-20T16:29:59.658Z,99526.19
2022-10-20T16:32:29.161Z,99513.03
2022-10-20T16:34:59.400Z,99520.59
2022-10-20T16:37:27.097Z,99513.84
2022-10-20T16:39:53.761Z,99519.81
2022-10-20T16:42:20.432Z,99517.00
2022-10-20T16:44:47.033Z,99509.06
2022-10-20T16:47:13.752Z,99506.69
2022-10-20T16:49:40.413Z,99500.31
2022-10-20T16:52:07.212Z,99510.22
2022-10-20T16:54:33.902Z,99511.41
2022-10-20T16:57:00.544Z,99520.97
2022-10-20T16:59:27.207Z,99515.78
2022-10-20T17:01:54.974Z,99509.81
2022-10-20T17:04:23.977Z,99509.84
2022-10-20T17:06:50.894Z,99515.78
2022-10-20T17:09:17.493Z,99510.19
2022-10-20T17:11:44.216Z,99499.88
2022-10-20T17:14:12.105Z,99497.09
2022-10-20T17:16:40.234Z,99498.66
2022-10-20T17:19:06.961Z,99502.22
2022-10-20T17:21:34.135Z,99511.34
2022-10-20T17:24:01.726Z,99508.53
2022-10-20T17:26:33.068Z,99508.94
2022-10-20T17:29:02.066Z,99506.97
2022-10-20T17:31:29.572Z,99505.75
2022-10-20T17:33:58.179Z,99510.91
2022-10-20T17:36:26.589Z,99499.38
2022-10-20T17:39:06.193Z,99513.66
2022-10-20T17:41:33.646Z,99508.88
2022-10-20T17:44:01.674Z,99515.19
2022-10-20T17:46:28.706Z,99510.41
2022-10-20T17:48:55.322Z,99512.81
2022-10-20T17:51:27.749Z,99510.41
2022-10-20T17:53:58.156Z,99504.03
2022-10-20T17:56:35.363Z,99508.00
2022-10-20T17:59:03.951Z,99511.94
2022-10-20T18:01:33.396Z,99510.34
2022-10-20T18:04:04.170Z,99510.72
2022-10-20T18:06:34.446Z,99497.22
2022-10-20T18:09:04.724Z,99495.66
2022-10-20T18:11:33.313Z,99500.41
2022-10-20T18:14:00.578Z,99509.50
2022-10-20T18:16:29.968Z,99503.16
2022-10-20T18:21:30.537Z,99499.56
2022-10-20T18:23:59.142Z,99497.56
2022-10-20T18:26:25.820Z,99495.19
2022-10-20T18:28:52.836Z,99488.81
2022-10-20T18:31:23.147Z,99495.94
2022-10-20T18:33:54.283Z,99490.75
2022-10-20T18:36:24.181Z,99488.38
2022-10-20T18:38:50.901Z,99485.59
2022-10-20T18:41:25.051Z,99495.91
2022-10-20T18:43:58.119Z,99487.97
2022-10-20T18:46:26.554Z,99491.91
2022-10-20T18:48:53.276Z,99497.47
2022-10-20T18:51:19.998Z,99496.31
2022-10-20T18:53:47.124Z,99491.53
2022-10-20T18:56:19.203Z,99480.81
2022-10-20T18:58:53.315Z,99480.81
2022-10-20T19:01:23.923Z,99474.47
2022-10-20T19:03:53.676Z,99477.25
2022-10-20T19:06:23.413Z,99479.19
2022-10-20T19:08:54.350Z,99475.25
2022-10-20T19:11:23.554Z,99472.47
2022-10-20T19:13:50.630Z,99473.25
2022-10-20T19:16:21.518Z,99472.06
2022-10-20T19:18:50.268Z,99470.09
2022-10-20T19:23:59.123Z,99472.47
2022-10-20T19:26:31.030Z,99468.13
2022-10-20T19:29:04.878Z,99464.94
2022-10-20T19:31:45.559Z,99455.41
2022-10-20T19:34:21.343Z,99456.97
2022-10-20T19:36:49.009Z,99460.13
2022-10-20T19:39:19.205Z,99458.94
2022-10-20T19:41:46.239Z,99455.75
2022-10-20T19:44:15.417Z,99447.44
2022-10-20T19:46:47.735Z,99457.72
2022-10-20T19:49:14.721Z,99451.78
2022-10-20T19:51:42.045Z,99441.84
2022-10-20T19:54:09.547Z,99435.50
2022-10-20T19:56:36.732Z,99432.28
2022-10-20T19:59:05.453Z,99421.19
2022-10-20T20:01:32.463Z,99425.16
2022-10-20T20:03:59.922Z,99416.84
2022-10-20T20:06:28.525Z,99414.88
2022-10-20T20:08:59.474Z,99416.44
2022-10-20T20:11:29.679Z,99410.09
2022-10-20T20:14:17.974Z,99410.09
2022-10-20T20:16:46.765Z,99412.88
2022-10-20T20:19:15.928Z,99413.66
2022-10-20T20:21:42.980Z,99407.31
2022-10-20T20:24:12.631Z,99408.91
2022-10-20T20:26:39.358Z,99415.66
2022-10-20T20:29:06.209Z,99422.81
2022-10-20T20:31:33.679Z,99425.22
2022-10-20T20:34:00.381Z,99412.97
2022-10-20T20:36:27.881Z,99413.41
2022-10-20T20:38:57.849Z,99414.59
2022-10-20T20:41:26.934Z,99407.84
2022-10-20T20:43:54.253Z,99407.06
2022-10-20T20:46:22.963Z,99409.47
2022-10-20T20:48:50.121Z,99409.47
2022-10-20T20:51:16.961Z,99411.44
2022-10-20T20:53:43.696Z,99410.31
2022-10-20T20:56:28.395Z,99402.41
2022-10-20T20:58:56.271Z,99393.69
2022-10-20T21:01:27.539Z,99396.47
2022-10-20T21:03:59.758Z,99396.84
2022-10-20T21:06:33.839Z,99398.41
2022-10-20T21:09:06.802Z,99403.16
2022-10-20T21:11:33.554Z,99392.84
2022-10-20T21:14:00.262Z,99394.03
2022-10-20T21:16:30.474Z,99390.50
2022-10-20T21:19:00.224Z,99392.06
2022-10-20T21:21:32.930Z,99402.41
2022-10-20T21:24:00.839Z,99397.63
2022-10-20T21:26:28.440Z,99397.63
2022-10-20T21:28:55.195Z,99396.81
2022-10-20T21:31:25.045Z,99393.63
2022-10-20T21:33:54.659Z,99387.31
2022-10-20T21:36:22.815Z,99383.75
2022-10-20T21:38:50.823Z,99380.19
2022-10-20T21:41:23.012Z,99374.25
2022-10-20T21:43:51.380Z,99372.28
2022-10-20T21:46:22.698Z,99370.31
2022-10-20T21:48:51.741Z,99363.94
2022-10-20T21:51:21.350Z,99359.97
2022-10-20T21:53:48.235Z,99358.78
2022-10-20T21:56:15.435Z,99355.59
2022-10-20T21:58:42.544Z,99352.47
2022-10-20T22:01:18.465Z,99359.22
2022-10-20T22:03:46.503Z,99356.03
2022-10-20T22:06:15.844Z,99361.19
2022-10-20T22:08:46.607Z,99358.81
2022-10-20T22:11:22.634Z,99354.88
2022-10-20T22:13:49.277Z,99353.66
2022-10-20T22:16:19.111Z,99348.53
2022-10-20T22:18:46.367Z,99350.91
2022-10-20T22:21:16.630Z,99354.88
2022-10-20T22:23:44.662Z,99352.47
2022-10-20T22:26:12.465Z,99348.53
2022-10-20T22:28:39.646Z,99343.78
2022-10-20T22:31:07.412Z,99349.31
2022-10-20T22:33:35.058Z,99354.09
2022-10-20T22:36:01.869Z,99342.16
2022-10-20T22:38:28.497Z,99336.63
2022-10-20T22:40:59.693Z,99333.44
2022-10-20T22:43:27.525Z,99337.00
2022-10-20T22:45:54.210Z,99331.06
2022-10-20T22:48:21.537Z,99327.50
2022-10-20T22:50:48.361Z,99331.06
2022-10-20T22:53:15.250Z,99318.34
2022-10-20T22:55:42.040Z,99323.91
2022-10-20T22:58:08.720Z,99319.53
2022-10-20T23:00:35.497Z,99311.19
2022-10-20T23:03:02.142Z,99320.75
2022-10-20T23:05:28.784Z,99313.97
2022-10-20T23:07:55.377Z,99304.88
2022-10-20T23:10:21.961Z,99301.69
2022-10-20T23:12:48.595Z,99290.19
2022-10-20T23:15:15.359Z,99292.56
2022-10-20T23:17:41.979Z,99282.25
2022-10-20T23:20:09.095Z,99285.03
2022-10-20T23:22:35.696Z,99283.44
2022-10-20T23:25:02.426Z,99266.38
2022-10-20T23:27:29.319Z,99264.38
2022-10-20T23:29:57.911Z,99259.66
2022-10-20T23:32:24.589Z,99256.84
2022-10-20T23:34:51.196Z,99252.88
2022-10-20T23:37:19.818Z,99251.69
2022-10-20T23:39:46.657Z,99247.31
2022-10-20T23:42:13.346Z,99237.81
2022-10-20T23:44:40.189Z,99234.63
2022-10-20T23:47:06.826Z,99231.06
2022-10-20T23:49:33.491Z,99231.06
2022-10-20T23:52:00.113Z,99229.47
2022-10-20T23:54:26.880Z,99219.16
2022-10-20T23:56:53.494Z,99215.97
2022-10-20T23:59:20.070Z,99210.44
